sensor_id;sensor_type;location;lat;lon;timestamp;temperature;humidity
24382;DHT22;12502;50.678;7.172;2022-11-06T00:04:43;8.40;99.90
24382;DHT22;12502;50.678;7.172;2022-11-06T00:09:45;8.40;99.90
24382;DHT22;12502;50.678;7.172;2022-11-06T00:14:47;8.40;99.90
24382;DHT22;12502;50.678;7.172;2022-11-06T00:19:48;8.40;99.90
24382;DHT22;12502;50.678;7.172;2022-11-06T00:24:50;8.30;99.90
24382;DHT22;12502;50.678;7.172;2022-11-06T00:29:51;8.30;99.90
24382;DHT22;12502;50.678;7.172;2022-11-06T00:34:53;8.30;99.90
24382;DHT22;12502;50.678;7.172;2022-11-06T00:39:55;8.30;99.90
24382;DHT22;12502;50.678;7.172;2022-11-06T00:44:57;8.30;99.90
24382;DHT22;12502;50.678;7.172;2022-11-06T00:49:58;8.20;99.90
24382;DHT22;12502;50.678;7.172;2022-11-06T00:55:02;8.20;99.90
24382;DHT22;12502;50.678;7.172;2022-11-06T01:00:04;8.20;99.90
24382;DHT22;12502;50.678;7.172;2022-11-06T01:05:06;8.20;99.90
24382;DHT22;12502;50.678;7.172;2022-11-06T01:10:08;8.20;99.90
24382;DHT22;12502;50.678;7.172;2022-11-06T01:15:10;8.20;99.90
24382;DHT22;12502;50.678;7.172;2022-11-06T01:20:12;8.20;99.90
24382;DHT22;12502;50.678;7.172;2022-11-06T01:25:13;8.20;99.90
24382;DHT22;12502;50.678;7.172;2022-11-06T01:30:15;8.10;99.90
24382;DHT22;12502;50.678;7.172;2022-11-06T01:35:17;8.10;99.90
24382;DHT22;12502;50.678;7.172;2022-11-06T01:40:18;8.10;99.90
24382;DHT22;12502;50.678;7.172;2022-11-06T01:45:32;8.10;99.90
24382;DHT22;12502;50.678;7.172;2022-11-06T01:50:36;8.10;99.90
24382;DHT22;12502;50.678;7.172;2022-11-06T01:55:41;8.00;99.90
24382;DHT22;12502;50.678;7.172;2022-11-06T02:00:43;8.00;99.90
24382;DHT22;12502;50.678;7.172;2022-11-06T02:05:46;8.00;99.90
24382;DHT22;12502;50.678;7.172;2022-11-06T02:10:48;8.00;99.90
24382;DHT22;12502;50.678;7.172;2022-11-06T02:21:39;7.90;99.90
24382;DHT22;12502;50.678;7.172;2022-11-06T02:32:45;7.80;99.90
24382;DHT22;12502;50.678;7.172;2022-11-06T02:37:54;7.80;99.90
24382;DHT22;12502;50.678;7.172;2022-11-06T02:42:58;7.80;99.90
24382;DHT22;12502;50.678;7.172;2022-11-06T02:48:03;7.70;99.90
24382;DHT22;12502;50.678;7.172;2022-11-06T02:53:08;7.70;99.90
24382;DHT22;12502;50.678;7.172;2022-11-06T02:58:21;7.70;99.90
24382;DHT22;12502;50.678;7.172;2022-11-06T03:03:27;7.70;99.90
24382;DHT22;12502;50.678;7.172;2022-11-06T03:08:34;7.70;99.90
24382;DHT22;12502;50.678;7.172;2022-11-06T03:19:12;7.70;99.90
24382;DHT22;12502;50.678;7.172;2022-11-06T03:24:24;7.70;99.90
24382;DHT22;12502;50.678;7.172;2022-11-06T03:29:58;7.70;99.90
24382;DHT22;12502;50.678;7.172;2022-11-06T03:35:08;7.70;99.90
24382;DHT22;12502;50.678;7.172;2022-11-06T03:40:15;7.70;99.90
24382;DHT22;12502;50.678;7.172;2022-11-06T03:45:20;7.70;99.90
24382;DHT22;12502;50.678;7.172;2022-11-06T03:50:30;7.70;99.90
24382;DHT22;12502;50.678;7.172;2022-11-06T03:55:42;7.70;99.90
24382;DHT22;12502;50.678;7.172;2022-11-06T04:00:46;7.70;99.90
24382;DHT22;12502;50.678;7.172;2022-11-06T04:05:59;7.70;99.90
24382;DHT22;12502;50.678;7.172;2022-11-06T04:11:03;7.60;99.90
24382;DHT22;12502;50.678;7.172;2022-11-06T04:16:32;7.60;99.90
24382;DHT22;12502;50.678;7.172;2022-11-06T04:27:47;7.60;99.90
24382;DHT22;12502;50.678;7.172;2022-11-06T04:33:07;7.60;99.90
24382;DHT22;12502;50.678;7.172;2022-11-06T04:38:22;7.70;99.90
24382;DHT22;12502;50.678;7.172;2022-11-06T04:43:56;7.70;99.90
24382;DHT22;12502;50.678;7.172;2022-11-06T04:49:01;7.80;99.90
24382;DHT22;12502;50.678;7.172;2022-11-06T04:54:06;7.80;99.90
24382;DHT22;12502;50.678;7.172;2022-11-06T04:59:14;7.70;99.90
24382;DHT22;12502;50.678;7.172;2022-11-06T05:04:16;7.70;99.90
24382;DHT22;12502;50.678;7.172;2022-11-06T05:09:17;7.70;99.90
24382;DHT22;12502;50.678;7.172;2022-11-06T05:14:19;7.70;99.90
24382;DHT22;12502;50.678;7.172;2022-11-06T05:19:21;7.80;99.90
24382;DHT22;12502;50.678;7.172;2022-11-06T05:24:22;7.90;99.90
24382;DHT22;12502;50.678;7.172;2022-11-06T05:29:24;7.80;99.90
24382;DHT22;12502;50.678;7.172;2022-11-06T05:34:25;8.00;99.90
24382;DHT22;12502;50.678;7.172;2022-11-06T05:39:27;8.00;99.90
24382;DHT22;12502;50.678;7.172;2022-11-06T05:44:29;8.00;99.90
24382;DHT22;12502;50.678;7.172;2022-11-06T05:49:31;8.10;99.90
24382;DHT22;12502;50.678;7.172;2022-11-06T05:54:32;8.10;99.90
24382;DHT22;12502;50.678;7.172;2022-11-06T05:59:34;8.10;99.90
24382;DHT22;12502;50.678;7.172;2022-11-06T06:04:36;8.10;99.90
24382;DHT22;12502;50.678;7.172;2022-11-06T06:09:37;8.20;99.90
24382;DHT22;12502;50.678;7.172;2022-11-06T06:14:39;8.20;99.90
24382;DHT22;12502;50.678;7.172;2022-11-06T06:19:40;8.30;99.90
24382;DHT22;12502;50.678;7.172;2022-11-06T06:24:42;8.30;99.90
24382;DHT22;12502;50.678;7.172;2022-11-06T06:29:44;8.20;99.90
24382;DHT22;12502;50.678;7.172;2022-11-06T06:34:46;8.20;99.90
24382;DHT22;12502;50.678;7.172;2022-11-06T06:39:47;8.20;99.90
24382;DHT22;12502;50.678;7.172;2022-11-06T06:44:49;8.30;99.90
24382;DHT22;12502;50.678;7.172;2022-11-06T06:49:50;8.30;99.90
24382;DHT22;12502;50.678;7.172;2022-11-06T06:54:52;8.30;99.90
24382;DHT22;12502;50.678;7.172;2022-11-06T06:59:54;8.30;99.90
24382;DHT22;12502;50.678;7.172;2022-11-06T07:04:55;8.40;99.90
24382;DHT22;12502;50.678;7.172;2022-11-06T07:09:57;8.40;99.90
24382;DHT22;12502;50.678;7.172;2022-11-06T07:14:58;8.40;99.90
24382;DHT22;12502;50.678;7.172;2022-11-06T07:20:00;8.40;99.90
24382;DHT22;12502;50.678;7.172;2022-11-06T07:25:03;8.40;99.90
24382;DHT22;12502;50.678;7.172;2022-11-06T07:30:05;8.50;99.90
24382;DHT22;12502;50.678;7.172;2022-11-06T07:35:07;8.50;99.90
24382;DHT22;12502;50.678;7.172;2022-11-06T07:40:09;8.60;99.90
24382;DHT22;12502;50.678;7.172;2022-11-06T07:45:11;8.70;99.90
24382;DHT22;12502;50.678;7.172;2022-11-06T07:50:12;8.70;99.90
24382;DHT22;12502;50.678;7.172;2022-11-06T07:55:14;8.80;99.90
24382;DHT22;12502;50.678;7.172;2022-11-06T08:00:16;8.80;99.90
24382;DHT22;12502;50.678;7.172;2022-11-06T08:05:18;8.90;99.90
24382;DHT22;12502;50.678;7.172;2022-11-06T08:10:19;9.10;99.90
24382;DHT22;12502;50.678;7.172;2022-11-06T08:15:21;9.20;99.90
24382;DHT22;12502;50.678;7.172;2022-11-06T08:20:23;9.30;99.90
24382;DHT22;12502;50.678;7.172;2022-11-06T08:25:24;9.40;99.90
24382;DHT22;12502;50.678;7.172;2022-11-06T08:30:27;9.50;99.90
24382;DHT22;12502;50.678;7.172;2022-11-06T08:35:29;9.50;99.90
24382;DHT22;12502;50.678;7.172;2022-11-06T08:40:31;9.60;99.90
24382;DHT22;12502;50.678;7.172;2022-11-06T08:45:40;9.60;99.90
24382;DHT22;12502;50.678;7.172;2022-11-06T08:50:42;9.70;99.90
24382;DHT22;12502;50.678;7.172;2022-11-06T08:55:44;9.80;99.90
24382;DHT22;12502;50.678;7.172;2022-11-06T09:00:46;9.80;99.90
24382;DHT22;12502;50.678;7.172;2022-11-06T09:05:47;9.90;99.90
24382;DHT22;12502;50.678;7.172;2022-11-06T09:10:49;10.00;99.90
24382;DHT22;12502;50.678;7.172;2022-11-06T09:15:59;10.00;99.90
24382;DHT22;12502;50.678;7.172;2022-11-06T09:21:00;10.10;99.90
24382;DHT22;12502;50.678;7.172;2022-11-06T09:26:02;10.20;99.90
24382;DHT22;12502;50.678;7.172;2022-11-06T09:31:04;10.40;99.90
24382;DHT22;12502;50.678;7.172;2022-11-06T09:36:06;10.50;99.90
24382;DHT22;12502;50.678;7.172;2022-11-06T09:41:18;10.50;99.90
24382;DHT22;12502;50.678;7.172;2022-11-06T09:46:25;10.30;99.90
24382;DHT22;12502;50.678;7.172;2022-11-06T09:56:41;10.20;99.90
24382;DHT22;12502;50.678;7.172;2022-11-06T10:01:47;10.30;99.90
24382;DHT22;12502;50.678;7.172;2022-11-06T10:06:50;10.20;99.90
24382;DHT22;12502;50.678;7.172;2022-11-06T10:12:09;10.30;99.90
24382;DHT22;12502;50.678;7.172;2022-11-06T10:18:18;10.20;99.90
24382;DHT22;12502;50.678;7.172;2022-11-06T10:23:10;10.20;99.90
24382;DHT22;12502;50.678;7.172;2022-11-06T10:28:18;10.20;99.90
24382;DHT22;12502;50.678;7.172;2022-11-06T10:38:37;10.20;99.90
24382;DHT22;12502;50.678;7.172;2022-11-06T10:43:49;10.30;99.90
24382;DHT22;12502;50.678;7.172;2022-11-06T10:48:57;10.50;99.90
24382;DHT22;12502;50.678;7.172;2022-11-06T10:59:12;10.60;99.90
24382;DHT22;12502;50.678;7.172;2022-11-06T11:04:14;10.70;99.90
24382;DHT22;12502;50.678;7.172;2022-11-06T11:09:33;10.70;99.90
24382;DHT22;12502;50.678;7.172;2022-11-06T11:14:35;10.80;99.90
24382;DHT22;12502;50.678;7.172;2022-11-06T11:19:38;10.80;99.90
24382;DHT22;12502;50.678;7.172;2022-11-06T11:25:07;10.90;99.90
24382;DHT22;12502;50.678;7.172;2022-11-06T11:30:25;11.00;99.90
24382;DHT22;12502;50.678;7.172;2022-11-06T11:35:29;11.00;99.90
24382;DHT22;12502;50.678;7.172;2022-11-06T11:40:36;11.10;99.90
24382;DHT22;12502;50.678;7.172;2022-11-06T11:45:38;11.10;99.90
24382;DHT22;12502;50.678;7.172;2022-11-06T11:50:40;11.20;99.90
24382;DHT22;12502;50.678;7.172;2022-11-06T11:55:47;11.30;99.90
24382;DHT22;12502;50.678;7.172;2022-11-06T12:00:53;11.50;99.90
24382;DHT22;12502;50.678;7.172;2022-11-06T12:06:10;11.50;99.90
24382;DHT22;12502;50.678;7.172;2022-11-06T12:11:18;11.60;99.90
24382;DHT22;12502;50.678;7.172;2022-11-06T12:16:21;11.40;99.90
24382;DHT22;12502;50.678;7.172;2022-11-06T12:21:29;11.50;99.90
24382;DHT22;12502;50.678;7.172;2022-11-06T12:26:50;11.50;99.90
24382;DHT22;12502;50.678;7.172;2022-11-06T12:37:44;11.60;99.90
24382;DHT22;12502;50.678;7.172;2022-11-06T12:43:53;11.80;99.90
24382;DHT22;12502;50.678;7.172;2022-11-06T12:54:27;11.90;99.90
24382;DHT22;12502;50.678;7.172;2022-11-06T12:59:46;12.00;99.90
24382;DHT22;12502;50.678;7.172;2022-11-06T13:05:12;12.10;99.90
24382;DHT22;12502;50.678;7.172;2022-11-06T13:21:03;11.90;99.90
24382;DHT22;12502;50.678;7.172;2022-11-06T13:31:24;11.80;99.90
24382;DHT22;12502;50.678;7.172;2022-11-06T13:36:29;11.70;99.90
24382;DHT22;12502;50.678;7.172;2022-11-06T13:41:31;11.70;99.90
24382;DHT22;12502;50.678;7.172;2022-11-06T13:47:13;11.60;99.90
24382;DHT22;12502;50.678;7.172;2022-11-06T13:52:36;11.60;99.90
24382;DHT22;12502;50.678;7.172;2022-11-06T14:09:14;11.50;99.90
24382;DHT22;12502;50.678;7.172;2022-11-06T14:19:22;11.50;99.90
24382;DHT22;12502;50.678;7.172;2022-11-06T14:34:38;11.40;99.90
24382;DHT22;12502;50.678;7.172;2022-11-06T14:45:11;11.30;99.90
24382;DHT22;12502;50.678;7.172;2022-11-06T14:55:41;11.20;99.90
24382;DHT22;12502;50.678;7.172;2022-11-06T15:16:39;11.10;99.90
24382;DHT22;12502;50.678;7.172;2022-11-06T15:22:04;11.10;99.90
24382;DHT22;12502;50.678;7.172;2022-11-06T15:27:11;11.00;99.90
24382;DHT22;12502;50.678;7.172;2022-11-06T15:32:21;11.00;99.90
24382;DHT22;12502;50.678;7.172;2022-11-06T15:37:29;10.90;99.90
24382;DHT22;12502;50.678;7.172;2022-11-06T15:42:34;10.90;99.90
24382;DHT22;12502;50.678;7.172;2022-11-06T15:47:36;10.90;99.90
24382;DHT22;12502;50.678;7.172;2022-11-06T15:52:39;10.80;99.90
24382;DHT22;12502;50.678;7.172;2022-11-06T15:57:41;10.80;99.90
24382;DHT22;12502;50.678;7.172;2022-11-06T16:02:56;10.80;99.90
24382;DHT22;12502;50.678;7.172;2022-11-06T16:07:59;10.70;99.90
24382;DHT22;12502;50.678;7.172;2022-11-06T16:13:02;10.60;99.90
24382;DHT22;12502;50.678;7.172;2022-11-06T16:18:05;10.60;99.90
24382;DHT22;12502;50.678;7.172;2022-11-06T16:23:11;10.50;99.90
24382;DHT22;12502;50.678;7.172;2022-11-06T16:28:19;10.40;99.90
24382;DHT22;12502;50.678;7.172;2022-11-06T16:33:22;10.30;99.90
24382;DHT22;12502;50.678;7.172;2022-11-06T16:38:31;10.20;99.90
24382;DHT22;12502;50.678;7.172;2022-11-06T16:43:42;10.10;99.90
24382;DHT22;12502;50.678;7.172;2022-11-06T16:48:44;10.10;99.90
24382;DHT22;12502;50.678;7.172;2022-11-06T16:58:54;9.90;99.90
24382;DHT22;12502;50.678;7.172;2022-11-06T17:04:00;9.90;99.90
24382;DHT22;12502;50.678;7.172;2022-11-06T17:09:06;9.90;99.90
24382;DHT22;12502;50.678;7.172;2022-11-06T17:14:17;9.90;99.90
24382;DHT22;12502;50.678;7.172;2022-11-06T17:19:20;9.80;99.90
24382;DHT22;12502;50.678;7.172;2022-11-06T17:24:22;9.80;99.90
24382;DHT22;12502;50.678;7.172;2022-11-06T17:29:39;9.80;99.90
24382;DHT22;12502;50.678;7.172;2022-11-06T17:34:41;9.80;99.90
24382;DHT22;12502;50.678;7.172;2022-11-06T17:39:43;9.80;99.90
24382;DHT22;12502;50.678;7.172;2022-11-06T17:44:44;9.70;99.90
24382;DHT22;12502;50.678;7.172;2022-11-06T17:49:46;9.80;99.90
24382;DHT22;12502;50.678;7.172;2022-11-06T17:54:49;9.80;99.90
24382;DHT22;12502;50.678;7.172;2022-11-06T17:59:51;9.70;99.90
24382;DHT22;12502;50.678;7.172;2022-11-06T18:04:52;9.70;99.90
24382;DHT22;12502;50.678;7.172;2022-11-06T18:09:54;9.70;99.90
24382;DHT22;12502;50.678;7.172;2022-11-06T18:14:56;9.70;99.90
24382;DHT22;12502;50.678;7.172;2022-11-06T18:19:58;9.70;99.90
24382;DHT22;12502;50.678;7.172;2022-11-06T18:24:59;9.70;99.90
24382;DHT22;12502;50.678;7.172;2022-11-06T18:30:01;9.70;99.90
24382;DHT22;12502;50.678;7.172;2022-11-06T18:35:03;9.70;99.90
24382;DHT22;12502;50.678;7.172;2022-11-06T18:40:06;9.80;99.90
24382;DHT22;12502;50.678;7.172;2022-11-06T18:45:08;9.80;99.90
24382;DHT22;12502;50.678;7.172;2022-11-06T18:50:10;9.80;99.90
24382;DHT22;12502;50.678;7.172;2022-11-06T18:55:11;9.90;99.90
24382;DHT22;12502;50.678;7.172;2022-11-06T19:00:13;9.90;99.90
24382;DHT22;12502;50.678;7.172;2022-11-06T19:05:15;9.90;99.90
24382;DHT22;12502;50.678;7.172;2022-11-06T19:10:17;10.00;99.90
24382;DHT22;12502;50.678;7.172;2022-11-06T19:15:19;10.00;99.90
24382;DHT22;12502;50.678;7.172;2022-11-06T19:20:21;10.00;99.90
24382;DHT22;12502;50.678;7.172;2022-11-06T19:25:23;10.10;99.90
24382;DHT22;12502;50.678;7.172;2022-11-06T19:30:25;10.10;99.90
24382;DHT22;12502;50.678;7.172;2022-11-06T19:35:28;10.10;99.90
24382;DHT22;12502;50.678;7.172;2022-11-06T19:40:29;10.00;99.90
24382;DHT22;12502;50.678;7.172;2022-11-06T19:45:33;10.00;99.90
24382;DHT22;12502;50.678;7.172;2022-11-06T19:50:34;10.10;99.90
24382;DHT22;12502;50.678;7.172;2022-11-06T19:55:56;10.10;99.90
24382;DHT22;12502;50.678;7.172;2022-11-06T20:00:59;10.10;99.90
24382;DHT22;12502;50.678;7.172;2022-11-06T20:06:01;10.10;99.90
24382;DHT22;12502;50.678;7.172;2022-11-06T20:11:10;10.20;99.90
24382;DHT22;12502;50.678;7.172;2022-11-06T20:16:18;10.30;99.90
24382;DHT22;12502;50.678;7.172;2022-11-06T20:21:21;10.20;99.90
24382;DHT22;12502;50.678;7.172;2022-11-06T20:26:23;10.20;99.90
24382;DHT22;12502;50.678;7.172;2022-11-06T20:31:26;10.20;99.90
24382;DHT22;12502;50.678;7.172;2022-11-06T20:36:29;10.30;99.90
24382;DHT22;12502;50.678;7.172;2022-11-06T20:41:31;10.30;99.90
24382;DHT22;12502;50.678;7.172;2022-11-06T20:46:34;10.30;99.90
24382;DHT22;12502;50.678;7.172;2022-11-06T20:51:36;10.30;99.90
24382;DHT22;12502;50.678;7.172;2022-11-06T20:56:58;10.30;99.90
24382;DHT22;12502;50.678;7.172;2022-11-06T21:02:00;10.40;99.90
24382;DHT22;12502;50.678;7.172;2022-11-06T21:07:02;10.40;99.90
24382;DHT22;12502;50.678;7.172;2022-11-06T21:12:04;10.40;99.90
24382;DHT22;12502;50.678;7.172;2022-11-06T21:17:06;10.40;99.90
24382;DHT22;12502;50.678;7.172;2022-11-06T21:22:08;10.40;99.90
24382;DHT22;12502;50.678;7.172;2022-11-06T21:27:10;10.50;99.90
24382;DHT22;12502;50.678;7.172;2022-11-06T21:32:11;10.50;99.90
24382;DHT22;12502;50.678;7.172;2022-11-06T21:37:13;10.50;99.90
24382;DHT22;12502;50.678;7.172;2022-11-06T21:42:15;10.50;99.90
24382;DHT22;12502;50.678;7.172;2022-11-06T21:47:16;10.50;99.90
24382;DHT22;12502;50.678;7.172;2022-11-06T21:52:21;10.60;99.90
24382;DHT22;12502;50.678;7.172;2022-11-06T21:57:41;10.50;99.90
24382;DHT22;12502;50.678;7.172;2022-11-06T22:02:43;10.50;99.90
24382;DHT22;12502;50.678;7.172;2022-11-06T22:07:45;10.40;99.90
24382;DHT22;12502;50.678;7.172;2022-11-06T22:12:46;10.40;99.90
24382;DHT22;12502;50.678;7.172;2022-11-06T22:17:48;10.50;99.90
24382;DHT22;12502;50.678;7.172;2022-11-06T22:22:50;10.50;99.90
24382;DHT22;12502;50.678;7.172;2022-11-06T22:27:51;10.50;99.90
24382;DHT22;12502;50.678;7.172;2022-11-06T22:32:54;10.60;99.90
24382;DHT22;12502;50.678;7.172;2022-11-06T22:37:56;10.60;99.90
24382;DHT22;12502;50.678;7.172;2022-11-06T22:42:58;10.60;99.90
24382;DHT22;12502;50.678;7.172;2022-11-06T22:48:00;10.60;99.90
24382;DHT22;12502;50.678;7.172;2022-11-06T22:53:02;10.60;99.90
24382;DHT22;12502;50.678;7.172;2022-11-06T22:58:03;10.70;99.90
24382;DHT22;12502;50.678;7.172;2022-11-06T23:03:05;10.60;99.90
24382;DHT22;12502;50.678;7.172;2022-11-06T23:08:07;10.60;99.90
24382;DHT22;12502;50.678;7.172;2022-11-06T23:13:09;10.60;99.90
24382;DHT22;12502;50.678;7.172;2022-11-06T23:18:11;10.50;99.90
24382;DHT22;12502;50.678;7.172;2022-11-06T23:23:13;10.50;99.90
24382;DHT22;12502;50.678;7.172;2022-11-06T23:28:15;10.50;99.90
24382;DHT22;12502;50.678;7.172;2022-11-06T23:33:17;10.50;99.90
24382;DHT22;12502;50.678;7.172;2022-11-06T23:38:18;10.50;99.90
24382;DHT22;12502;50.678;7.172;2022-11-06T23:43:20;10.50;99.90
24382;DHT22;12502;50.678;7.172;2022-11-06T23:48:22;10.50;99.90
24382;DHT22;12502;50.678;7.172;2022-11-06T23:53:23;10.50;99.90
24382;DHT22;12502;50.678;7.172;2022-11-06T23:58:25;10.70;99.90
